createdAt,value
2019-02-24T00:00:58.098Z,19.97
2019-02-24T00:03:25.690Z,21.50
2019-02-24T00:05:53.238Z,22.67
2019-02-24T00:08:21.270Z,18.37
2019-02-24T00:10:48.856Z,20.07
2019-02-24T00:13:17.275Z,19.20
2019-02-24T00:15:44.982Z,18.80
2019-02-24T00:18:12.549Z,17.77
2019-02-24T00:20:40.296Z,17.23
2019-02-24T00:23:07.956Z,16.97
2019-02-24T00:25:35.529Z,17.70
2019-02-24T00:28:07.216Z,16.73
2019-02-24T00:30:32.459Z,17.53
2019-02-24T00:33:00.345Z,17.47
2019-02-24T00:35:27.916Z,17.33
2019-02-24T00:37:55.581Z,17.57
2019-02-24T00:40:23.205Z,16.07
2019-02-24T00:42:50.768Z,18.83
2019-02-24T00:45:18.829Z,17.30
2019-02-24T00:47:46.492Z,19.03
2019-02-24T00:50:13.953Z,18.37
2019-02-24T00:52:41.837Z,18.80
2019-02-24T00:55:09.444Z,19.53
2019-02-24T00:57:37.055Z,20.27
2019-02-24T01:00:05.079Z,20.27
2019-02-24T01:02:32.703Z,21.13
2019-02-24T01:05:00.834Z,21.83
2019-02-24T01:07:28.623Z,22.33
2019-02-24T01:09:56.407Z,22.60
2019-02-24T01:12:23.921Z,21.90
2019-02-24T01:14:51.587Z,22.67
2019-02-24T01:17:19.200Z,21.33
2019-02-24T01:19:46.802Z,23.17
2019-02-24T01:22:14.425Z,24.80
2019-02-24T01:24:42.054Z,24.97
2019-02-24T01:27:31.511Z,26.37
2019-02-24T01:30:02.285Z,27.23
2019-02-24T01:32:30.020Z,30.47
2019-02-24T01:34:57.963Z,30.83
2019-02-24T01:37:25.587Z,33.50
2019-02-24T01:39:54.442Z,35.40
2019-02-24T01:42:22.039Z,35.90
2019-02-24T01:44:49.874Z,36.30
2019-02-24T01:47:17.446Z,35.53
2019-02-24T01:49:45.037Z,34.97
2019-02-24T01:52:12.963Z,33.87
2019-02-24T01:54:40.595Z,33.77
2019-02-24T01:57:08.188Z,31.30
2019-02-24T01:59:36.191Z,32.23
2019-02-24T02:02:04.148Z,31.00
2019-02-24T02:04:32.059Z,36.50
2019-02-24T02:06:59.745Z,37.43
2019-02-24T02:09:27.460Z,38.03
2019-02-24T02:11:55.609Z,36.67
2019-02-24T02:14:23.211Z,38.17
2019-02-24T02:16:50.799Z,39.73
2019-02-24T02:19:18.314Z,41.93
2019-02-24T02:21:46.296Z,40.07
2019-02-24T02:24:13.923Z,39.17
2019-02-24T02:26:41.576Z,38.93
2019-02-24T02:29:09.307Z,36.67
2019-02-24T02:31:36.925Z,37.57
2019-02-24T02:34:04.902Z,36.27
2019-02-24T02:36:32.479Z,37.27
2019-02-24T02:39:00.446Z,39.23
2019-02-24T02:41:28.275Z,41.57
2019-02-24T02:43:56.827Z,43.63
2019-02-24T02:46:24.575Z,41.83
2019-02-24T02:48:52.742Z,43.50
2019-02-24T02:51:20.379Z,41.30
2019-02-24T02:53:48.075Z,42.97
2019-02-24T02:56:16.121Z,41.27
2019-02-24T02:58:53.626Z,42.57
2019-02-24T03:01:13.603Z,42.27
2019-02-24T03:03:41.251Z,42.03
2019-02-24T03:06:28.399Z,44.47
2019-02-24T03:08:56.103Z,42.50
2019-02-24T03:11:23.749Z,42.27
2019-02-24T03:13:51.903Z,41.37
2019-02-24T03:16:23.580Z,42.27
2019-02-24T03:18:51.949Z,38.93
2019-02-24T03:21:19.632Z,40.57
2019-02-24T03:23:47.325Z,40.83
2019-02-24T03:26:15.010Z,40.43
2019-02-24T03:28:43.099Z,42.43
2019-02-24T03:31:10.708Z,42.23
2019-02-24T03:33:38.697Z,41.57
2019-02-24T03:36:06.772Z,41.97
2019-02-24T03:38:34.526Z,41.77
2019-02-24T03:41:02.292Z,41.97
2019-02-24T03:43:29.851Z,37.37
2019-02-24T03:45:57.741Z,39.57
2019-02-24T03:48:25.714Z,40.23
2019-02-24T03:50:53.344Z,39.37
2019-02-24T03:53:20.835Z,43.87
2019-02-24T03:55:48.483Z,48.00
2019-02-24T03:58:16.870Z,45.60
2019-02-24T04:00:44.499Z,47.10
2019-02-24T04:03:12.185Z,48.20
2019-02-24T04:05:40.493Z,43.53
2019-02-24T04:08:08.535Z,43.40
2019-02-24T04:10:36.195Z,43.17
2019-02-24T04:13:03.822Z,41.53
2019-02-24T04:15:31.802Z,41.07
2019-02-24T04:17:59.732Z,40.13
2019-02-24T04:20:27.327Z,39.70
2019-02-24T04:22:54.950Z,38.83
2019-02-24T04:25:22.552Z,37.80
2019-02-24T04:27:50.161Z,39.47
2019-02-24T04:30:17.776Z,39.07
2019-02-24T04:32:47.071Z,38.53
2019-02-24T04:35:15.143Z,38.23
2019-02-24T04:37:42.768Z,39.60
2019-02-24T04:40:10.375Z,39.40
2019-02-24T04:42:38.097Z,41.30
2019-02-24T04:45:05.599Z,41.17
2019-02-24T04:47:34.798Z,41.00
2019-02-24T04:50:02.736Z,63.78
2019-02-24T04:52:30.361Z,49.10
2019-02-24T04:54:58.323Z,43.67
2019-02-24T04:57:25.857Z,42.40
2019-02-24T04:59:53.651Z,39.70
2019-02-24T05:02:21.504Z,39.63
2019-02-24T05:04:49.028Z,40.80
2019-02-24T05:07:16.796Z,39.87
2019-02-24T05:09:44.385Z,40.50
2019-02-24T05:12:12.103Z,43.13
2019-02-24T05:14:39.690Z,42.27
2019-02-24T05:17:07.697Z,40.93
2019-02-24T05:19:35.287Z,42.77
2019-02-24T05:22:02.820Z,39.30
2019-02-24T05:24:30.474Z,42.33
2019-02-24T05:27:27.034Z,39.53
2019-02-24T05:29:54.955Z,40.83
2019-02-24T05:32:22.612Z,41.50
2019-02-24T05:34:50.404Z,42.03
2019-02-24T05:37:18.028Z,42.07
2019-02-24T05:39:46.840Z,42.97
2019-02-24T05:42:14.496Z,40.97
2019-02-24T05:44:42.390Z,41.03
2019-02-24T05:47:10.044Z,40.67
2019-02-24T05:49:37.620Z,41.33
2019-02-24T05:52:05.269Z,38.07
2019-02-24T05:54:32.981Z,38.13
2019-02-24T05:57:00.613Z,37.50
2019-02-24T05:59:28.239Z,37.00
2019-02-24T06:01:56.185Z,38.23
2019-02-24T06:04:24.160Z,39.73
2019-02-24T06:06:52.123Z,40.73
2019-02-24T06:09:19.749Z,39.13
2019-02-24T06:11:47.411Z,40.00
2019-02-24T06:14:15.102Z,42.73
2019-02-24T06:16:42.686Z,47.10
2019-02-24T06:19:10.327Z,39.33
2019-02-24T06:21:38.237Z,41.00
2019-02-24T06:24:06.323Z,41.00
2019-02-24T06:26:33.952Z,40.87
2019-02-24T06:29:02.234Z,48.87
2019-02-24T06:31:30.106Z,41.23
2019-02-24T06:33:57.729Z,40.17
2019-02-24T06:36:25.379Z,35.57
2019-02-24T06:38:53.043Z,36.47
2019-02-24T06:41:20.660Z,37.93
2019-02-24T06:43:48.304Z,36.10
2019-02-24T06:46:15.925Z,37.27
2019-02-24T06:48:43.580Z,35.50
2019-02-24T06:51:12.134Z,37.47
2019-02-24T06:53:39.736Z,36.77
2019-02-24T06:56:07.221Z,37.07
2019-02-24T06:58:34.850Z,36.03
2019-02-24T07:01:02.430Z,35.60
2019-02-24T07:03:30.072Z,38.23
2019-02-24T07:05:58.155Z,42.40
2019-02-24T07:08:25.795Z,42.70
2019-02-24T07:10:53.485Z,43.90
2019-02-24T07:13:21.505Z,42.97
2019-02-24T07:15:49.386Z,42.70
2019-02-24T07:18:17.021Z,41.17
2019-02-24T07:20:44.628Z,39.00
2019-02-24T07:23:12.379Z,39.90
2019-02-24T07:25:40.337Z,32.97
2019-02-24T07:28:08.326Z,30.10
2019-02-24T07:30:36.260Z,28.27
2019-02-24T07:33:04.122Z,27.00
2019-02-24T07:35:32.015Z,24.23
2019-02-24T07:37:59.635Z,21.70
2019-02-24T07:40:27.638Z,21.37
2019-02-24T07:42:55.230Z,21.83
2019-02-24T07:45:22.844Z,19.97
2019-02-24T07:47:50.435Z,16.07
2019-02-24T07:50:18.062Z,16.10
2019-02-24T07:52:45.788Z,14.87
2019-02-24T07:55:13.990Z,13.67
2019-02-24T07:57:41.683Z,13.00
2019-02-24T08:00:09.189Z,12.77
2019-02-24T08:02:36.862Z,12.53
2019-02-24T08:05:04.982Z,11.17
2019-02-24T08:07:32.833Z,12.00
2019-02-24T08:10:00.477Z,13.17
2019-02-24T08:12:28.104Z,12.27
2019-02-24T08:14:55.718Z,12.57
2019-02-24T08:17:23.580Z,11.47
2019-02-24T08:19:51.219Z,12.50
2019-02-24T08:22:18.831Z,11.83
2019-02-24T08:24:46.441Z,12.80
2019-02-24T08:27:14.144Z,12.47
2019-02-24T08:29:44.042Z,12.50
2019-02-24T08:32:11.646Z,13.17
2019-02-24T08:34:39.854Z,11.70
2019-02-24T08:37:07.432Z,12.07
2019-02-24T08:39:35.432Z,13.13
2019-02-24T08:42:03.101Z,12.40
2019-02-24T08:44:30.675Z,12.10
2019-02-24T08:46:58.573Z,11.43
2019-02-24T08:49:26.452Z,10.90
2019-02-24T08:51:54.090Z,11.70
2019-02-24T08:54:21.751Z,10.57
2019-02-24T08:56:49.491Z,10.13
2019-02-24T08:59:17.127Z,10.27
2019-02-24T09:01:44.798Z,10.33
2019-02-24T09:04:12.810Z,10.37
2019-02-24T09:06:40.883Z,10.47
2019-02-24T09:09:08.770Z,10.90
2019-02-24T09:11:36.909Z,10.50
2019-02-24T09:14:04.823Z,10.43
2019-02-24T09:16:33.652Z,10.53
2019-02-24T09:19:01.256Z,10.60
2019-02-24T09:21:28.885Z,11.03
2019-02-24T09:23:56.477Z,11.73
2019-02-24T09:26:24.454Z,10.67
2019-02-24T09:28:52.172Z,10.23
2019-02-24T09:31:19.858Z,10.67
2019-02-24T09:33:48.550Z,10.87
2019-02-24T09:36:16.497Z,9.93
2019-02-24T09:38:44.145Z,9.57
2019-02-24T09:41:11.795Z,9.80
2019-02-24T09:43:40.534Z,9.43
2019-02-24T09:46:08.175Z,9.53
2019-02-24T09:48:35.810Z,8.53
2019-02-24T09:51:03.790Z,9.97
2019-02-24T09:53:31.387Z,8.70
2019-02-24T09:55:59.292Z,8.90
2019-02-24T09:58:26.831Z,9.40
2019-02-24T10:00:54.462Z,9.73
2019-02-24T10:03:22.059Z,10.03
2019-02-24T10:05:49.681Z,9.53
2019-02-24T10:08:17.296Z,8.77
2019-02-24T10:10:45.449Z,9.90
2019-02-24T10:13:13.407Z,10.00
2019-02-24T10:15:41.058Z,10.60
2019-02-24T10:18:08.646Z,10.47
2019-02-24T10:20:36.178Z,10.57
2019-02-24T10:23:10.786Z,10.20
2019-02-24T10:25:38.739Z,10.63
2019-02-24T10:28:06.454Z,10.30
2019-02-24T10:30:34.358Z,10.00
2019-02-24T10:33:02.466Z,8.37
2019-02-24T10:35:30.587Z,8.20
2019-02-24T10:37:59.909Z,8.87
2019-02-24T10:40:27.539Z,8.67
2019-02-24T10:42:55.474Z,8.57
2019-02-24T10:45:23.842Z,9.17
2019-02-24T10:47:51.585Z,8.37
2019-02-24T10:50:19.447Z,9.60
2019-02-24T10:52:47.044Z,10.27
2019-02-24T10:55:14.697Z,9.33
2019-02-24T10:57:42.604Z,10.33
2019-02-24T11:00:11.449Z,9.13
2019-02-24T11:02:39.086Z,9.13
2019-02-24T11:05:07.351Z,9.23
2019-02-24T11:07:34.976Z,8.53
2019-02-24T11:10:03.969Z,9.20
2019-02-24T11:12:31.657Z,9.07
2019-02-24T11:14:59.683Z,9.27
2019-02-24T11:17:27.711Z,9.10
2019-02-24T11:19:55.656Z,9.40
2019-02-24T11:22:23.236Z,9.03
2019-02-24T11:24:50.931Z,9.77
2019-02-24T11:27:18.974Z,9.77
2019-02-24T11:29:46.596Z,9.53
2019-02-24T11:32:14.338Z,10.30
2019-02-24T11:34:42.336Z,10.87
2019-02-24T11:37:11.929Z,13.17
2019-02-24T11:39:39.525Z,12.58
2019-02-24T11:42:07.532Z,12.58
2019-02-24T11:44:35.170Z,15.90
2019-02-24T11:47:04.318Z,14.75
2019-02-24T11:49:31.969Z,13.90
2019-02-24T11:52:03.814Z,15.23
2019-02-24T11:54:30.234Z,14.40
2019-02-24T11:56:57.842Z,15.67
2019-02-24T11:59:25.474Z,18.00
2019-02-24T12:01:56.815Z,16.95
2019-02-24T12:04:24.859Z,14.90
2019-02-24T12:06:52.381Z,13.65
2019-02-24T12:09:34.341Z,15.53
2019-02-24T12:12:01.969Z,17.70
2019-02-24T12:14:29.621Z,20.17
2019-02-24T12:16:59.499Z,18.23
2019-02-24T12:19:27.106Z,19.62
2019-02-24T12:21:54.748Z,20.25
2019-02-24T12:24:22.630Z,18.20
2019-02-24T12:26:50.269Z,18.53
2019-02-24T12:29:17.927Z,19.42
2019-02-24T12:31:46.882Z,21.25
2019-02-24T12:34:14.468Z,18.30
2019-02-24T12:36:42.017Z,16.65
2019-02-24T12:39:10.131Z,18.53
2019-02-24T12:41:37.907Z,17.37
2019-02-24T12:44:05.498Z,18.90
2019-02-24T12:46:33.822Z,15.95
2019-02-24T12:49:01.807Z,14.73
2019-02-24T12:51:29.841Z,13.48
2019-02-24T12:53:59.689Z,12.90
2019-02-24T12:56:27.338Z,14.43
2019-02-24T12:58:54.978Z,13.38
2019-02-24T13:01:23.718Z,11.75
2019-02-24T13:04:02.648Z,10.93
2019-02-24T13:06:30.354Z,11.22
2019-02-24T13:08:58.258Z,13.30
2019-02-24T13:11:26.276Z,11.33
2019-02-24T13:13:53.798Z,11.77
2019-02-24T13:16:21.743Z,10.32
2019-02-24T13:18:50.551Z,12.37
2019-02-24T13:21:18.488Z,12.07
2019-02-24T13:23:46.138Z,10.48
2019-02-24T13:28:56.742Z,11.00
2019-02-24T13:31:24.298Z,9.90
2019-02-24T13:33:52.065Z,9.75
2019-02-24T13:36:19.686Z,10.10
2019-02-24T13:38:47.309Z,8.83
2019-02-24T13:41:14.967Z,9.50
2019-02-24T13:43:42.571Z,6.70
2019-02-24T13:46:10.210Z,6.37
2019-02-24T13:48:37.850Z,6.50
2019-02-24T13:51:05.458Z,7.50
2019-02-24T13:53:33.317Z,7.72
2019-02-24T13:56:00.980Z,8.15
2019-02-24T13:58:28.632Z,7.33
2019-02-24T14:00:56.274Z,6.33
2019-02-24T14:06:13.541Z,6.20
2019-02-24T14:08:51.677Z,6.83
2019-02-24T14:11:19.330Z,6.87
2019-02-24T14:13:47.376Z,7.20
2019-02-24T14:16:14.939Z,6.53
2019-02-24T14:18:42.850Z,6.60
2019-02-24T14:21:10.470Z,6.75
2019-02-24T14:23:38.095Z,6.72
2019-02-24T14:26:06.120Z,6.45
2019-02-24T14:28:34.110Z,6.45
2019-02-24T14:31:21.197Z,6.87
2019-02-24T14:33:48.815Z,6.85
2019-02-24T14:36:16.821Z,6.35
2019-02-24T14:38:44.378Z,5.92
2019-02-24T14:41:12.068Z,6.60
2019-02-24T14:43:39.627Z,6.45
2019-02-24T14:46:07.598Z,5.85
2019-02-24T14:48:35.157Z,5.37
2019-02-24T14:53:46.834Z,5.53
2019-02-24T14:56:14.790Z,5.60
2019-02-24T14:58:42.527Z,5.45
2019-02-24T15:01:10.614Z,5.95
2019-02-24T15:03:38.418Z,6.12
2019-02-24T15:06:06.291Z,5.85
2019-02-24T15:08:34.385Z,6.10
2019-02-24T15:11:02.512Z,5.50
2019-02-24T15:13:30.392Z,5.00
2019-02-24T15:15:58.288Z,4.40
2019-02-24T15:18:25.994Z,4.70
2019-02-24T15:20:53.822Z,4.67
2019-02-24T15:23:22.110Z,4.70
2019-02-24T15:25:50.281Z,4.37
2019-02-24T15:28:17.918Z,4.30
2019-02-24T15:30:45.626Z,4.25
2019-02-24T15:33:13.659Z,4.47
2019-02-24T15:35:41.472Z,4.72
2019-02-24T15:38:09.215Z,3.62
2019-02-24T15:40:37.106Z,4.22
2019-02-24T15:43:05.466Z,4.35
2019-02-24T15:45:33.082Z,4.83
2019-02-24T15:48:01.075Z,4.28
2019-02-24T15:50:29.112Z,8.78
2019-02-24T15:52:56.753Z,3.67
2019-02-24T15:55:27.076Z,4.70
2019-02-24T15:57:54.696Z,3.83
2019-02-24T16:00:22.353Z,3.92
2019-02-24T16:02:50.158Z,3.58
2019-02-24T16:05:18.175Z,3.42
2019-02-24T16:07:45.792Z,3.15
2019-02-24T16:10:13.997Z,3.72
2019-02-24T16:12:41.860Z,3.92
2019-02-24T16:15:11.502Z,4.12
2019-02-24T16:17:39.152Z,3.70
2019-02-24T16:20:08.451Z,3.40
2019-02-24T16:22:36.443Z,3.83
2019-02-24T16:25:04.438Z,3.50
2019-02-24T16:27:32.064Z,3.85
2019-02-24T16:29:59.703Z,3.30
2019-02-24T16:32:27.353Z,3.00
2019-02-24T16:34:54.981Z,3.65
2019-02-24T16:37:22.592Z,3.50
2019-02-24T16:39:50.302Z,3.77
2019-02-24T16:42:17.831Z,3.40
2019-02-24T16:44:45.434Z,4.00
2019-02-24T16:47:14.239Z,3.60
2019-02-24T16:49:42.185Z,3.92
2019-02-24T16:52:09.815Z,3.20
2019-02-24T16:54:37.433Z,3.87
2019-02-24T16:57:07.513Z,4.57
2019-02-24T16:59:35.245Z,4.67
2019-02-24T17:02:02.995Z,5.50
2019-02-24T17:04:30.562Z,6.08
2019-02-24T17:06:58.193Z,6.53
2019-02-24T17:09:25.827Z,6.73
2019-02-24T17:11:53.433Z,7.23
2019-02-24T17:14:21.075Z,7.37
2019-02-24T17:16:48.789Z,6.43
2019-02-24T17:19:16.427Z,7.70
2019-02-24T17:21:44.049Z,7.77
2019-02-24T17:24:11.734Z,7.43
2019-02-24T17:26:39.325Z,8.00
2019-02-24T17:29:07.145Z,8.00
2019-02-24T17:31:34.760Z,9.13
2019-02-24T17:34:02.370Z,8.37
2019-02-24T17:36:30.087Z,7.50
2019-02-24T17:38:58.097Z,7.67
2019-02-24T17:41:25.638Z,7.70
2019-02-24T17:43:53.452Z,7.70
2019-02-24T17:46:21.187Z,6.87
2019-02-24T17:48:48.786Z,7.20
2019-02-24T17:51:21.204Z,6.60
2019-02-24T17:53:47.586Z,7.70
2019-02-24T17:56:16.278Z,8.43
2019-02-24T17:58:43.905Z,8.53
2019-02-24T18:01:11.607Z,7.53
2019-02-24T18:03:39.906Z,8.67
2019-02-24T18:06:07.595Z,8.07
2019-02-24T18:08:35.385Z,7.53
2019-02-24T18:11:03.006Z,8.57
2019-02-24T18:13:31.015Z,7.93
2019-02-24T18:15:58.585Z,8.70
2019-02-24T18:18:27.261Z,8.93
2019-02-24T18:21:06.547Z,9.03
2019-02-24T18:23:34.935Z,8.30
2019-02-24T18:26:03.259Z,8.00
2019-02-24T18:28:30.926Z,8.60
2019-02-24T18:30:58.569Z,7.93
2019-02-24T18:33:26.191Z,9.53
2019-02-24T18:35:54.113Z,9.47
2019-02-24T18:38:22.120Z,36.57
2019-02-24T18:40:49.722Z,28.57
2019-02-24T18:43:17.370Z,9.73
2019-02-24T18:45:45.011Z,9.67
2019-02-24T18:48:12.645Z,9.33
2019-02-24T18:50:40.354Z,8.47
2019-02-24T18:53:09.782Z,8.87
2019-02-24T18:55:37.382Z,8.37
2019-02-24T18:58:04.949Z,9.07
2019-02-24T19:00:32.939Z,8.87
2019-02-24T19:03:00.564Z,8.53
2019-02-24T19:05:28.472Z,9.50
2019-02-24T19:07:56.406Z,8.10
2019-02-24T19:10:24.040Z,11.23
2019-02-24T19:12:51.630Z,8.53
2019-02-24T19:15:19.598Z,8.07
2019-02-24T19:17:47.216Z,8.73
2019-02-24T19:20:16.102Z,9.17
2019-02-24T19:22:43.831Z,9.37
2019-02-24T19:25:11.804Z,10.30
2019-02-24T19:27:39.440Z,10.53
2019-02-24T19:30:08.085Z,9.90
2019-02-24T19:32:35.942Z,10.53
2019-02-24T19:35:04.203Z,10.03
2019-02-24T19:37:32.101Z,10.27
2019-02-24T19:39:59.724Z,10.77
2019-02-24T19:42:27.342Z,11.20
2019-02-24T19:44:55.121Z,12.13
2019-02-24T19:47:22.739Z,11.07
2019-02-24T19:49:51.099Z,10.80
2019-02-24T19:52:18.923Z,11.37
2019-02-24T19:54:46.545Z,11.93
2019-02-24T19:57:14.191Z,12.23
2019-02-24T19:59:42.134Z,10.80
2019-02-24T20:02:10.302Z,11.07
2019-02-24T20:04:37.859Z,10.70
2019-02-24T20:07:05.459Z,10.13
2019-02-24T20:09:33.797Z,9.50
2019-02-24T20:12:01.397Z,8.67
2019-02-24T20:14:29.086Z,11.03
2019-02-24T20:16:56.718Z,9.60
2019-02-24T20:19:24.666Z,10.07
2019-02-24T20:21:52.275Z,10.03
2019-02-24T20:24:19.911Z,10.20
2019-02-24T20:26:47.847Z,10.83
2019-02-24T20:29:15.821Z,10.70
2019-02-24T20:31:43.444Z,11.50
2019-02-24T20:34:11.434Z,12.03
2019-02-24T20:36:39.032Z,10.90
2019-02-24T20:39:07.326Z,11.23
2019-02-24T20:41:34.904Z,12.47
2019-02-24T20:44:02.631Z,12.23
2019-02-24T20:46:30.469Z,11.03
2019-02-24T20:48:58.049Z,10.40
2019-02-24T20:51:25.630Z,10.33
2019-02-24T20:53:53.285Z,10.80
2019-02-24T20:56:21.082Z,10.23
2019-02-24T20:58:48.735Z,10.30
2019-02-24T21:01:16.392Z,9.80
2019-02-24T21:03:44.362Z,9.37
2019-02-24T21:06:12.014Z,9.10
2019-02-24T21:08:40.553Z,8.90
2019-02-24T21:11:08.274Z,9.20
2019-02-24T21:13:35.979Z,9.87
2019-02-24T21:16:04.719Z,9.27
2019-02-24T21:18:32.359Z,9.77
2019-02-24T21:20:59.960Z,9.37
2019-02-24T21:23:28.708Z,10.97
2019-02-24T21:25:56.321Z,9.70
2019-02-24T21:28:23.929Z,11.37
2019-02-24T21:30:51.550Z,10.27
2019-02-24T21:33:19.214Z,11.03
2019-02-24T21:35:46.970Z,10.07
2019-02-24T21:38:14.533Z,11.37
2019-02-24T21:40:44.371Z,10.57
2019-02-24T21:43:12.007Z,10.37
2019-02-24T21:45:41.486Z,11.80
2019-02-24T21:48:09.581Z,11.23
2019-02-24T21:50:37.652Z,10.40
2019-02-24T21:53:05.459Z,10.47
2019-02-24T21:55:33.098Z,11.17
2019-02-24T21:58:32.248Z,11.27
2019-02-24T22:00:59.913Z,11.23
2019-02-24T22:03:27.642Z,10.80
2019-02-24T22:09:23.266Z,11.23
2019-02-24T22:11:50.995Z,11.80
2019-02-24T22:14:18.736Z,12.03
2019-02-24T22:16:46.435Z,12.50
2019-02-24T22:19:14.807Z,14.13
2019-02-24T22:21:43.292Z,14.27
2019-02-24T22:24:12.838Z,14.47
2019-02-24T22:26:41.415Z,13.97
2019-02-24T22:29:10.978Z,14.43
2019-02-24T22:31:40.105Z,13.53
2019-02-24T22:34:09.866Z,12.27
2019-02-24T22:36:39.389Z,12.77
2019-02-24T22:39:09.238Z,12.47
2019-02-24T22:41:37.865Z,14.37
2019-02-24T22:44:07.767Z,12.67
2019-02-24T22:46:35.932Z,12.40
2019-02-24T22:49:03.566Z,12.07
2019-02-24T22:51:31.163Z,12.63
2019-02-24T22:53:58.717Z,12.20
2019-02-24T22:56:26.341Z,12.63
2019-02-24T22:58:54.010Z,12.00
2019-02-24T23:01:38.702Z,12.33
2019-02-24T23:04:11.316Z,13.40
2019-02-24T23:06:39.279Z,12.27
2019-02-24T23:09:10.192Z,12.57
2019-02-24T23:11:37.808Z,12.53
2019-02-24T23:14:06.646Z,13.50
2019-02-24T23:16:34.567Z,11.87
2019-02-24T23:19:02.193Z,13.83
2019-02-24T23:21:29.821Z,12.37
2019-02-24T23:23:57.497Z,10.70
2019-02-24T23:26:25.550Z,12.70
2019-02-24T23:28:53.534Z,11.30
2019-02-24T23:31:21.245Z,10.43
2019-02-24T23:33:49.295Z,11.57
2019-02-24T23:36:16.942Z,11.40
2019-02-24T23:38:44.578Z,11.20
2019-02-24T23:41:12.288Z,11.57
2019-02-24T23:43:39.897Z,10.60
2019-02-24T23:46:07.715Z,11.70
2019-02-24T23:48:35.672Z,12.10
2019-02-24T23:51:03.654Z,11.50
2019-02-24T23:53:31.269Z,10.93
2019-02-24T23:55:59.277Z,10.77
2019-02-24T23:58:27.246Z,11.53
